sensor_id;sensor_type;location;lat;lon;timestamp;temperature;humidity
52675;DHT22;38569;52.722;6.440;2023-03-13T00:01:46;8.90;99.90
52675;DHT22;38569;52.722;6.440;2023-03-13T00:04:13;8.90;99.90
52675;DHT22;38569;52.722;6.440;2023-03-13T00:06:39;8.80;99.90
52675;DHT22;38569;52.722;6.440;2023-03-13T00:09:08;8.80;99.90
52675;DHT22;38569;52.722;6.440;2023-03-13T00:11:34;8.80;99.90
52675;DHT22;38569;52.722;6.440;2023-03-13T00:14:02;8.80;99.90
52675;DHT22;38569;52.722;6.440;2023-03-13T00:16:28;8.80;99.90
52675;DHT22;38569;52.722;6.440;2023-03-13T00:18:55;8.80;99.90
52675;DHT22;38569;52.722;6.440;2023-03-13T00:21:23;8.70;99.90
52675;DHT22;38569;52.722;6.440;2023-03-13T00:23:50;8.70;99.90
52675;DHT22;38569;52.722;6.440;2023-03-13T00:26:22;8.70;99.90
52675;DHT22;38569;52.722;6.440;2023-03-13T00:28:48;8.70;99.90
52675;DHT22;38569;52.722;6.440;2023-03-13T00:31:23;8.70;99.90
52675;DHT22;38569;52.722;6.440;2023-03-13T00:33:52;8.70;99.90
52675;DHT22;38569;52.722;6.440;2023-03-13T00:36:20;8.70;99.90
52675;DHT22;38569;52.722;6.440;2023-03-13T00:38:47;8.70;99.90
52675;DHT22;38569;52.722;6.440;2023-03-13T00:41:15;8.70;99.90
52675;DHT22;38569;52.722;6.440;2023-03-13T00:43:42;8.70;99.90
52675;DHT22;38569;52.722;6.440;2023-03-13T00:46:10;8.70;99.90
52675;DHT22;38569;52.722;6.440;2023-03-13T00:48:36;8.70;99.90
52675;DHT22;38569;52.722;6.440;2023-03-13T00:51:04;8.70;99.90
52675;DHT22;38569;52.722;6.440;2023-03-13T00:53:30;8.70;99.90
52675;DHT22;38569;52.722;6.440;2023-03-13T00:58:29;8.70;99.90
52675;DHT22;38569;52.722;6.440;2023-03-13T01:00:55;8.70;99.90
52675;DHT22;38569;52.722;6.440;2023-03-13T01:03:23;8.70;99.90
52675;DHT22;38569;52.722;6.440;2023-03-13T01:05:59;8.80;99.90
52675;DHT22;38569;52.722;6.440;2023-03-13T01:08:26;8.70;99.90
52675;DHT22;38569;52.722;6.440;2023-03-13T01:11:13;8.70;99.90
52675;DHT22;38569;52.722;6.440;2023-03-13T01:13:39;8.80;99.90
52675;DHT22;38569;52.722;6.440;2023-03-13T01:16:16;8.80;99.90
52675;DHT22;38569;52.722;6.440;2023-03-13T01:18:44;8.80;99.90
52675;DHT22;38569;52.722;6.440;2023-03-13T01:21:11;8.80;99.90
52675;DHT22;38569;52.722;6.440;2023-03-13T01:23:38;8.80;99.90
52675;DHT22;38569;52.722;6.440;2023-03-13T01:26:05;8.80;99.90
52675;DHT22;38569;52.722;6.440;2023-03-13T01:28:31;8.80;99.90
52675;DHT22;38569;52.722;6.440;2023-03-13T01:30:58;8.80;99.90
52675;DHT22;38569;52.722;6.440;2023-03-13T01:33:23;8.80;99.90
52675;DHT22;38569;52.722;6.440;2023-03-13T01:35:49;8.80;99.90
52675;DHT22;38569;52.722;6.440;2023-03-13T01:38:15;8.80;99.90
52675;DHT22;38569;52.722;6.440;2023-03-13T01:40:46;8.80;99.90
52675;DHT22;38569;52.722;6.440;2023-03-13T01:43:24;8.80;99.90
52675;DHT22;38569;52.722;6.440;2023-03-13T01:51:09;8.90;99.90
52675;DHT22;38569;52.722;6.440;2023-03-13T01:53:40;8.90;99.90
52675;DHT22;38569;52.722;6.440;2023-03-13T01:56:09;8.90;99.90
52675;DHT22;38569;52.722;6.440;2023-03-13T01:58:36;8.90;99.90
52675;DHT22;38569;52.722;6.440;2023-03-13T02:01:03;8.80;99.90
52675;DHT22;38569;52.722;6.440;2023-03-13T02:03:29;8.80;99.90
52675;DHT22;38569;52.722;6.440;2023-03-13T02:05:56;8.80;99.90
52675;DHT22;38569;52.722;6.440;2023-03-13T02:08:33;8.70;99.90
52675;DHT22;38569;52.722;6.440;2023-03-13T02:11:09;8.80;99.90
52675;DHT22;38569;52.722;6.440;2023-03-13T02:13:37;8.80;99.90
52675;DHT22;38569;52.722;6.440;2023-03-13T02:16:03;8.80;99.90
52675;DHT22;38569;52.722;6.440;2023-03-13T02:18:29;8.80;99.90
52675;DHT22;38569;52.722;6.440;2023-03-13T02:23:59;8.80;99.90
52675;DHT22;38569;52.722;6.440;2023-03-13T02:26:27;8.80;99.90
52675;DHT22;38569;52.722;6.440;2023-03-13T02:28:53;8.80;99.90
52675;DHT22;38569;52.722;6.440;2023-03-13T02:31:19;8.80;99.90
52675;DHT22;38569;52.722;6.440;2023-03-13T02:33:45;8.90;99.90
52675;DHT22;38569;52.722;6.440;2023-03-13T02:36:11;8.90;99.90
52675;DHT22;38569;52.722;6.440;2023-03-13T02:38:46;8.90;99.90
52675;DHT22;38569;52.722;6.440;2023-03-13T02:41:15;8.90;99.90
52675;DHT22;38569;52.722;6.440;2023-03-13T02:43:41;8.90;99.90
52675;DHT22;38569;52.722;6.440;2023-03-13T02:46:13;9.00;99.90
52675;DHT22;38569;52.722;6.440;2023-03-13T02:48:48;9.00;99.90
52675;DHT22;38569;52.722;6.440;2023-03-13T02:51:30;9.00;99.90
52675;DHT22;38569;52.722;6.440;2023-03-13T02:54:00;9.00;99.90
52675;DHT22;38569;52.722;6.440;2023-03-13T02:56:29;9.00;99.90
52675;DHT22;38569;52.722;6.440;2023-03-13T02:58:56;9.20;99.90
52675;DHT22;38569;52.722;6.440;2023-03-13T03:01:21;9.20;99.90
52675;DHT22;38569;52.722;6.440;2023-03-13T03:03:48;9.20;99.90
52675;DHT22;38569;52.722;6.440;2023-03-13T03:06:14;9.30;99.90
52675;DHT22;38569;52.722;6.440;2023-03-13T03:08:40;9.30;99.90
52675;DHT22;38569;52.722;6.440;2023-03-13T03:11:08;9.40;99.90
52675;DHT22;38569;52.722;6.440;2023-03-13T03:13:34;9.30;99.90
52675;DHT22;38569;52.722;6.440;2023-03-13T03:16:05;9.40;99.90
52675;DHT22;38569;52.722;6.440;2023-03-13T03:18:31;9.40;99.90
52675;DHT22;38569;52.722;6.440;2023-03-13T03:20:57;9.50;99.90
52675;DHT22;38569;52.722;6.440;2023-03-13T03:23:23;9.40;99.90
52675;DHT22;38569;52.722;6.440;2023-03-13T03:25:48;9.50;99.90
52675;DHT22;38569;52.722;6.440;2023-03-13T03:28:14;9.50;99.90
52675;DHT22;38569;52.722;6.440;2023-03-13T03:30:40;9.50;99.90
52675;DHT22;38569;52.722;6.440;2023-03-13T03:33:05;9.50;99.90
52675;DHT22;38569;52.722;6.440;2023-03-13T03:35:31;9.60;99.90
52675;DHT22;38569;52.722;6.440;2023-03-13T03:37:58;9.60;99.90
52675;DHT22;38569;52.722;6.440;2023-03-13T03:40:24;9.50;99.90
52675;DHT22;38569;52.722;6.440;2023-03-13T03:42:50;9.60;99.90
52675;DHT22;38569;52.722;6.440;2023-03-13T03:45:15;9.70;99.90
52675;DHT22;38569;52.722;6.440;2023-03-13T03:47:41;9.70;99.90
52675;DHT22;38569;52.722;6.440;2023-03-13T03:50:07;9.70;99.90
52675;DHT22;38569;52.722;6.440;2023-03-13T03:52:36;9.80;99.90
52675;DHT22;38569;52.722;6.440;2023-03-13T03:55:01;9.90;99.90
52675;DHT22;38569;52.722;6.440;2023-03-13T03:57:27;9.90;99.90
52675;DHT22;38569;52.722;6.440;2023-03-13T03:59:53;10.00;99.90
52675;DHT22;38569;52.722;6.440;2023-03-13T04:02:19;10.00;99.90
52675;DHT22;38569;52.722;6.440;2023-03-13T04:04:44;10.00;99.90
52675;DHT22;38569;52.722;6.440;2023-03-13T04:07:10;10.00;99.90
52675;DHT22;38569;52.722;6.440;2023-03-13T04:09:36;10.00;99.90
52675;DHT22;38569;52.722;6.440;2023-03-13T04:12:02;10.10;99.90
52675;DHT22;38569;52.722;6.440;2023-03-13T04:14:28;10.20;99.90
52675;DHT22;38569;52.722;6.440;2023-03-13T04:16:53;10.20;99.90
52675;DHT22;38569;52.722;6.440;2023-03-13T04:19:19;10.10;99.90
52675;DHT22;38569;52.722;6.440;2023-03-13T04:21:44;10.10;99.90
52675;DHT22;38569;52.722;6.440;2023-03-13T04:24:10;10.20;99.90
52675;DHT22;38569;52.722;6.440;2023-03-13T04:26:36;10.20;99.90
52675;DHT22;38569;52.722;6.440;2023-03-13T04:29:02;10.30;99.90
52675;DHT22;38569;52.722;6.440;2023-03-13T04:31:27;10.30;99.90
52675;DHT22;38569;52.722;6.440;2023-03-13T04:33:53;10.40;99.90
52675;DHT22;38569;52.722;6.440;2023-03-13T04:36:20;10.40;99.90
52675;DHT22;38569;52.722;6.440;2023-03-13T04:38:45;10.40;99.90
52675;DHT22;38569;52.722;6.440;2023-03-13T04:41:11;10.40;99.90
52675;DHT22;38569;52.722;6.440;2023-03-13T04:43:37;10.50;99.90
52675;DHT22;38569;52.722;6.440;2023-03-13T04:46:02;10.50;99.90
52675;DHT22;38569;52.722;6.440;2023-03-13T04:48:28;10.60;99.90
52675;DHT22;38569;52.722;6.440;2023-03-13T04:50:54;10.60;99.90
52675;DHT22;38569;52.722;6.440;2023-03-13T04:53:20;10.60;99.90
52675;DHT22;38569;52.722;6.440;2023-03-13T04:55:46;10.70;99.90
52675;DHT22;38569;52.722;6.440;2023-03-13T04:58:12;10.70;99.90
52675;DHT22;38569;52.722;6.440;2023-03-13T05:00:42;10.70;99.90
52675;DHT22;38569;52.722;6.440;2023-03-13T05:03:07;10.80;99.90
52675;DHT22;38569;52.722;6.440;2023-03-13T05:05:34;10.80;99.90
52675;DHT22;38569;52.722;6.440;2023-03-13T05:08:00;10.80;99.90
52675;DHT22;38569;52.722;6.440;2023-03-13T05:10:26;10.80;99.90
52675;DHT22;38569;52.722;6.440;2023-03-13T05:12:51;10.80;99.90
52675;DHT22;38569;52.722;6.440;2023-03-13T05:15:17;10.80;99.90
52675;DHT22;38569;52.722;6.440;2023-03-13T05:17:43;10.90;99.90
52675;DHT22;38569;52.722;6.440;2023-03-13T05:20:09;11.00;99.90
52675;DHT22;38569;52.722;6.440;2023-03-13T05:22:36;11.00;99.90
52675;DHT22;38569;52.722;6.440;2023-03-13T05:25:03;11.10;99.90
52675;DHT22;38569;52.722;6.440;2023-03-13T05:27:30;11.00;99.90
52675;DHT22;38569;52.722;6.440;2023-03-13T05:29:55;11.10;99.90
52675;DHT22;38569;52.722;6.440;2023-03-13T05:32:21;11.10;99.90
52675;DHT22;38569;52.722;6.440;2023-03-13T05:34:47;11.20;99.90
52675;DHT22;38569;52.722;6.440;2023-03-13T05:37:13;11.10;99.90
52675;DHT22;38569;52.722;6.440;2023-03-13T05:39:38;11.20;99.90
52675;DHT22;38569;52.722;6.440;2023-03-13T05:42:04;11.20;99.90
52675;DHT22;38569;52.722;6.440;2023-03-13T05:44:30;11.20;99.90
52675;DHT22;38569;52.722;6.440;2023-03-13T05:46:55;11.30;99.90
52675;DHT22;38569;52.722;6.440;2023-03-13T05:49:21;11.40;99.90
52675;DHT22;38569;52.722;6.440;2023-03-13T05:51:47;11.30;99.90
52675;DHT22;38569;52.722;6.440;2023-03-13T05:54:13;11.30;99.90
52675;DHT22;38569;52.722;6.440;2023-03-13T05:56:38;11.30;99.90
52675;DHT22;38569;52.722;6.440;2023-03-13T05:59:04;11.30;99.90
52675;DHT22;38569;52.722;6.440;2023-03-13T06:01:30;11.30;99.90
52675;DHT22;38569;52.722;6.440;2023-03-13T06:03:55;11.50;99.90
52675;DHT22;38569;52.722;6.440;2023-03-13T06:06:21;11.40;99.90
52675;DHT22;38569;52.722;6.440;2023-03-13T06:08:47;11.60;99.90
52675;DHT22;38569;52.722;6.440;2023-03-13T06:11:12;11.60;99.90
52675;DHT22;38569;52.722;6.440;2023-03-13T06:13:38;11.60;99.90
52675;DHT22;38569;52.722;6.440;2023-03-13T06:16:04;11.50;99.90
52675;DHT22;38569;52.722;6.440;2023-03-13T06:18:30;11.60;99.90
52675;DHT22;38569;52.722;6.440;2023-03-13T06:21:00;11.50;99.90
52675;DHT22;38569;52.722;6.440;2023-03-13T06:23:26;11.50;99.90
52675;DHT22;38569;52.722;6.440;2023-03-13T06:25:52;11.60;99.90
52675;DHT22;38569;52.722;6.440;2023-03-13T06:28:18;11.60;99.90
52675;DHT22;38569;52.722;6.440;2023-03-13T06:30:44;11.60;99.90
52675;DHT22;38569;52.722;6.440;2023-03-13T06:33:10;11.60;99.90
52675;DHT22;38569;52.722;6.440;2023-03-13T06:35:39;11.60;99.90
52675;DHT22;38569;52.722;6.440;2023-03-13T06:38:05;11.60;99.90
52675;DHT22;38569;52.722;6.440;2023-03-13T06:40:31;11.60;99.90
52675;DHT22;38569;52.722;6.440;2023-03-13T06:42:57;11.60;99.90
52675;DHT22;38569;52.722;6.440;2023-03-13T06:45:23;11.60;99.90
52675;DHT22;38569;52.722;6.440;2023-03-13T06:47:49;11.60;99.90
52675;DHT22;38569;52.722;6.440;2023-03-13T06:50:17;11.70;99.90
52675;DHT22;38569;52.722;6.440;2023-03-13T06:52:43;11.70;99.90
52675;DHT22;38569;52.722;6.440;2023-03-13T06:55:09;11.70;99.90
52675;DHT22;38569;52.722;6.440;2023-03-13T06:57:35;11.70;99.90
52675;DHT22;38569;52.722;6.440;2023-03-13T07:00:00;11.80;99.90
52675;DHT22;38569;52.722;6.440;2023-03-13T07:02:26;11.80;99.90
52675;DHT22;38569;52.722;6.440;2023-03-13T07:04:52;11.80;99.90
52675;DHT22;38569;52.722;6.440;2023-03-13T07:07:18;11.80;99.90
52675;DHT22;38569;52.722;6.440;2023-03-13T07:09:43;11.80;99.90
52675;DHT22;38569;52.722;6.440;2023-03-13T07:12:09;11.80;99.90
52675;DHT22;38569;52.722;6.440;2023-03-13T07:14:35;11.90;99.90
52675;DHT22;38569;52.722;6.440;2023-03-13T07:17:00;12.00;99.90
52675;DHT22;38569;52.722;6.440;2023-03-13T07:19:26;12.00;99.90
52675;DHT22;38569;52.722;6.440;2023-03-13T07:21:52;12.00;99.90
52675;DHT22;38569;52.722;6.440;2023-03-13T07:24:18;12.10;99.90
52675;DHT22;38569;52.722;6.440;2023-03-13T07:26:44;12.10;99.90
52675;DHT22;38569;52.722;6.440;2023-03-13T07:29:09;12.10;99.90
52675;DHT22;38569;52.722;6.440;2023-03-13T07:31:35;12.10;99.90
52675;DHT22;38569;52.722;6.440;2023-03-13T07:34:01;12.20;99.90
52675;DHT22;38569;52.722;6.440;2023-03-13T07:36:27;12.20;99.90
52675;DHT22;38569;52.722;6.440;2023-03-13T07:38:54;12.30;99.90
52675;DHT22;38569;52.722;6.440;2023-03-13T07:41:19;12.40;99.90
52675;DHT22;38569;52.722;6.440;2023-03-13T07:43:45;12.40;99.90
52675;DHT22;38569;52.722;6.440;2023-03-13T07:46:16;12.40;99.90
52675;DHT22;38569;52.722;6.440;2023-03-13T07:48:46;12.40;99.90
52675;DHT22;38569;52.722;6.440;2023-03-13T07:51:18;12.50;99.90
52675;DHT22;38569;52.722;6.440;2023-03-13T07:53:44;12.50;99.90
52675;DHT22;38569;52.722;6.440;2023-03-13T07:56:17;12.50;99.90
52675;DHT22;38569;52.722;6.440;2023-03-13T07:58:44;12.50;99.90
52675;DHT22;38569;52.722;6.440;2023-03-13T08:01:21;12.50;99.90
52675;DHT22;38569;52.722;6.440;2023-03-13T08:03:47;12.40;99.90
52675;DHT22;38569;52.722;6.440;2023-03-13T08:06:20;12.30;99.90
52675;DHT22;38569;52.722;6.440;2023-03-13T08:08:48;12.30;99.90
52675;DHT22;38569;52.722;6.440;2023-03-13T08:11:19;12.20;99.90
52675;DHT22;38569;52.722;6.440;2023-03-13T08:13:45;12.20;99.90
52675;DHT22;38569;52.722;6.440;2023-03-13T08:16:13;12.10;99.90
52675;DHT22;38569;52.722;6.440;2023-03-13T08:18:42;12.10;99.90
52675;DHT22;38569;52.722;6.440;2023-03-13T08:21:10;12.10;99.90
52675;DHT22;38569;52.722;6.440;2023-03-13T08:23:37;12.20;99.90
52675;DHT22;38569;52.722;6.440;2023-03-13T08:26:10;12.20;99.90
52675;DHT22;38569;52.722;6.440;2023-03-13T08:28:36;12.20;99.90
52675;DHT22;38569;52.722;6.440;2023-03-13T08:31:13;12.20;99.90
52675;DHT22;38569;52.722;6.440;2023-03-13T08:33:40;12.30;99.90
52675;DHT22;38569;52.722;6.440;2023-03-13T08:36:27;12.30;99.90
52675;DHT22;38569;52.722;6.440;2023-03-13T08:38:56;12.40;99.90
52675;DHT22;38569;52.722;6.440;2023-03-13T08:41:24;12.50;99.90
52675;DHT22;38569;52.722;6.440;2023-03-13T08:43:55;12.50;99.90
52675;DHT22;38569;52.722;6.440;2023-03-13T08:46:21;12.50;99.90
52675;DHT22;38569;52.722;6.440;2023-03-13T08:48:51;12.60;99.90
52675;DHT22;38569;52.722;6.440;2023-03-13T08:51:19;12.70;99.90
52675;DHT22;38569;52.722;6.440;2023-03-13T08:53:45;12.80;99.90
52675;DHT22;38569;52.722;6.440;2023-03-13T08:56:13;13.00;99.90
52675;DHT22;38569;52.722;6.440;2023-03-13T08:58:39;13.10;99.90
52675;DHT22;38569;52.722;6.440;2023-03-13T09:01:14;13.20;99.90
52675;DHT22;38569;52.722;6.440;2023-03-13T09:03:41;13.30;99.90
52675;DHT22;38569;52.722;6.440;2023-03-13T09:06:07;13.60;99.90
52675;DHT22;38569;52.722;6.440;2023-03-13T09:08:33;13.70;99.90
52675;DHT22;38569;52.722;6.440;2023-03-13T09:11:05;13.50;99.90
52675;DHT22;38569;52.722;6.440;2023-03-13T09:13:33;13.40;99.90
52675;DHT22;38569;52.722;6.440;2023-03-13T09:16:01;13.20;99.90
52675;DHT22;38569;52.722;6.440;2023-03-13T09:18:27;13.10;99.90
52675;DHT22;38569;52.722;6.440;2023-03-13T09:20:53;13.00;99.90
52675;DHT22;38569;52.722;6.440;2023-03-13T09:23:20;13.00;99.90
52675;DHT22;38569;52.722;6.440;2023-03-13T09:25:47;13.00;99.90
52675;DHT22;38569;52.722;6.440;2023-03-13T09:28:13;13.00;99.90
52675;DHT22;38569;52.722;6.440;2023-03-13T09:30:39;13.10;99.90
52675;DHT22;38569;52.722;6.440;2023-03-13T09:33:05;13.10;99.90
52675;DHT22;38569;52.722;6.440;2023-03-13T09:35:31;13.20;99.90
52675;DHT22;38569;52.722;6.440;2023-03-13T09:37:56;13.00;99.90
52675;DHT22;38569;52.722;6.440;2023-03-13T09:40:23;12.90;99.90
52675;DHT22;38569;52.722;6.440;2023-03-13T09:42:52;13.00;99.90
52675;DHT22;38569;52.722;6.440;2023-03-13T09:45:32;13.00;99.90
52675;DHT22;38569;52.722;6.440;2023-03-13T09:48:17;13.10;99.90
52675;DHT22;38569;52.722;6.440;2023-03-13T09:51:03;13.20;99.90
52675;DHT22;38569;52.722;6.440;2023-03-13T09:56:49;13.60;99.90
52675;DHT22;38569;52.722;6.440;2023-03-13T09:59:39;13.80;99.90
52675;DHT22;38569;52.722;6.440;2023-03-13T10:02:30;14.30;99.90
52675;DHT22;38569;52.722;6.440;2023-03-13T10:05:07;14.80;99.90
52675;DHT22;38569;52.722;6.440;2023-03-13T10:07:35;14.80;99.90
52675;DHT22;38569;52.722;6.440;2023-03-13T10:10:02;14.60;99.90
52675;DHT22;38569;52.722;6.440;2023-03-13T10:12:37;14.40;99.90
52675;DHT22;38569;52.722;6.440;2023-03-13T10:15:32;14.30;99.90
52675;DHT22;38569;52.722;6.440;2023-03-13T10:18:11;14.10;99.90
52675;DHT22;38569;52.722;6.440;2023-03-13T10:20:40;14.10;99.90
52675;DHT22;38569;52.722;6.440;2023-03-13T10:23:17;14.10;99.90
52675;DHT22;38569;52.722;6.440;2023-03-13T10:25:44;14.00;99.90
52675;DHT22;38569;52.722;6.440;2023-03-13T10:28:13;14.00;99.90
52675;DHT22;38569;52.722;6.440;2023-03-13T10:30:45;14.00;99.90
52675;DHT22;38569;52.722;6.440;2023-03-13T10:33:24;14.00;99.90
52675;DHT22;38569;52.722;6.440;2023-03-13T10:36:14;14.00;99.90
52675;DHT22;38569;52.722;6.440;2023-03-13T10:38:49;14.10;99.90
52675;DHT22;38569;52.722;6.440;2023-03-13T10:41:19;14.10;99.90
52675;DHT22;38569;52.722;6.440;2023-03-13T10:43:52;14.10;99.90
52675;DHT22;38569;52.722;6.440;2023-03-13T10:46:30;14.10;99.90
52675;DHT22;38569;52.722;6.440;2023-03-13T10:48:56;14.20;99.90
52675;DHT22;38569;52.722;6.440;2023-03-13T10:51:39;14.20;99.90
52675;DHT22;38569;52.722;6.440;2023-03-13T10:54:28;14.30;99.90
52675;DHT22;38569;52.722;6.440;2023-03-13T10:58:12;14.40;99.90
52675;DHT22;38569;52.722;6.440;2023-03-13T11:02:56;14.70;99.90
52675;DHT22;38569;52.722;6.440;2023-03-13T11:07:49;15.00;99.90
52675;DHT22;38569;52.722;6.440;2023-03-13T11:10:28;15.20;99.90
52675;DHT22;38569;52.722;6.440;2023-03-13T11:12:56;15.20;99.90
52675;DHT22;38569;52.722;6.440;2023-03-13T11:15:29;15.30;99.90
52675;DHT22;38569;52.722;6.440;2023-03-13T11:18:02;15.50;99.90
52675;DHT22;38569;52.722;6.440;2023-03-13T11:20:38;16.30;99.90
52675;DHT22;38569;52.722;6.440;2023-03-13T11:23:26;16.80;99.90
52675;DHT22;38569;52.722;6.440;2023-03-13T11:26:23;16.70;99.90
52675;DHT22;38569;52.722;6.440;2023-03-13T11:29:04;17.00;99.90
52675;DHT22;38569;52.722;6.440;2023-03-13T11:34:25;17.70;99.90
52675;DHT22;38569;52.722;6.440;2023-03-13T11:37:00;17.60;99.90
52675;DHT22;38569;52.722;6.440;2023-03-13T11:45:00;17.70;99.90
52675;DHT22;38569;52.722;6.440;2023-03-13T11:47:55;18.40;99.10
52675;DHT22;38569;52.722;6.440;2023-03-13T11:56:36;17.60;96.40
52675;DHT22;38569;52.722;6.440;2023-03-13T11:59:12;17.40;97.30
52675;DHT22;38569;52.722;6.440;2023-03-13T12:01:53;18.10;97.30
52675;DHT22;38569;52.722;6.440;2023-03-13T12:04:25;18.10;95.10
52675;DHT22;38569;52.722;6.440;2023-03-13T12:06:57;18.30;95.00
52675;DHT22;38569;52.722;6.440;2023-03-13T12:09:48;18.20;95.90
52675;DHT22;38569;52.722;6.440;2023-03-13T12:15:04;18.30;93.80
52675;DHT22;38569;52.722;6.440;2023-03-13T12:17:41;18.20;94.20
52675;DHT22;38569;52.722;6.440;2023-03-13T12:20:13;18.30;93.30
52675;DHT22;38569;52.722;6.440;2023-03-13T12:22:46;18.30;93.70
52675;DHT22;38569;52.722;6.440;2023-03-13T12:25:30;18.50;93.10
52675;DHT22;38569;52.722;6.440;2023-03-13T12:34:26;18.90;92.20
52675;DHT22;38569;52.722;6.440;2023-03-13T12:37:01;19.20;92.10
52675;DHT22;38569;52.722;6.440;2023-03-13T12:45:21;19.60;89.40
52675;DHT22;38569;52.722;6.440;2023-03-13T12:48:19;19.40;89.30
52675;DHT22;38569;52.722;6.440;2023-03-13T12:51:39;19.20;87.80
52675;DHT22;38569;52.722;6.440;2023-03-13T12:57:04;18.70;89.00
52675;DHT22;38569;52.722;6.440;2023-03-13T12:59:33;18.70;90.50
52675;DHT22;38569;52.722;6.440;2023-03-13T13:02:01;19.00;90.00
52675;DHT22;38569;52.722;6.440;2023-03-13T13:04:43;19.10;90.50
52675;DHT22;38569;52.722;6.440;2023-03-13T13:07:23;19.20;90.80
52675;DHT22;38569;52.722;6.440;2023-03-13T13:12:40;19.20;90.40
52675;DHT22;38569;52.722;6.440;2023-03-13T13:15:26;19.10;91.00
52675;DHT22;38569;52.722;6.440;2023-03-13T13:20:36;18.40;91.70
52675;DHT22;38569;52.722;6.440;2023-03-13T13:25:46;18.10;91.00
52675;DHT22;38569;52.722;6.440;2023-03-13T13:30:43;18.20;92.10
52675;DHT22;38569;52.722;6.440;2023-03-13T13:38:36;18.30;84.30
52675;DHT22;38569;52.722;6.440;2023-03-13T13:43:40;18.20;84.80
52675;DHT22;38569;52.722;6.440;2023-03-13T13:46:26;18.20;84.80
52675;DHT22;38569;52.722;6.440;2023-03-13T13:52:53;18.10;81.80
52675;DHT22;38569;52.722;6.440;2023-03-13T13:57:20;18.10;84.50
52675;DHT22;38569;52.722;6.440;2023-03-13T14:02:21;18.30;84.90
52675;DHT22;38569;52.722;6.440;2023-03-13T14:04:51;18.40;87.70
52675;DHT22;38569;52.722;6.440;2023-03-13T14:07:24;18.30;88.10
52675;DHT22;38569;52.722;6.440;2023-03-13T14:10:25;18.20;88.80
52675;DHT22;38569;52.722;6.440;2023-03-13T14:12:58;18.10;87.40
52675;DHT22;38569;52.722;6.440;2023-03-13T14:15:29;18.10;89.30
52675;DHT22;38569;52.722;6.440;2023-03-13T14:18:22;18.10;87.30
52675;DHT22;38569;52.722;6.440;2023-03-13T14:23:47;17.80;87.80
52675;DHT22;38569;52.722;6.440;2023-03-13T14:26:19;17.90;90.30
52675;DHT22;38569;52.722;6.440;2023-03-13T14:28:51;18.00;87.70
52675;DHT22;38569;52.722;6.440;2023-03-13T14:31:32;17.90;87.70
52675;DHT22;38569;52.722;6.440;2023-03-13T14:34:01;17.70;89.90
52675;DHT22;38569;52.722;6.440;2023-03-13T14:36:28;17.70;90.70
52675;DHT22;38569;52.722;6.440;2023-03-13T14:39:35;17.60;91.20
52675;DHT22;38569;52.722;6.440;2023-03-13T14:44:36;17.60;91.10
52675;DHT22;38569;52.722;6.440;2023-03-13T14:47:05;17.50;90.70
52675;DHT22;38569;52.722;6.440;2023-03-13T14:49:31;17.40;91.00
52675;DHT22;38569;52.722;6.440;2023-03-13T14:52:01;17.30;90.90
52675;DHT22;38569;52.722;6.440;2023-03-13T14:54:29;17.30;91.20
52675;DHT22;38569;52.722;6.440;2023-03-13T14:57:13;17.40;91.10
52675;DHT22;38569;52.722;6.440;2023-03-13T14:59:39;17.40;87.00
52675;DHT22;38569;52.722;6.440;2023-03-13T15:02:23;17.40;86.80
52675;DHT22;38569;52.722;6.440;2023-03-13T15:05:02;17.30;83.40
52675;DHT22;38569;52.722;6.440;2023-03-13T15:07:41;17.20;80.50
52675;DHT22;38569;52.722;6.440;2023-03-13T15:10:32;17.00;81.40
52675;DHT22;38569;52.722;6.440;2023-03-13T15:12:58;16.90;80.40
52675;DHT22;38569;52.722;6.440;2023-03-13T15:15:24;16.80;82.60
52675;DHT22;38569;52.722;6.440;2023-03-13T15:17:50;16.70;82.00
52675;DHT22;38569;52.722;6.440;2023-03-13T15:20:16;16.60;83.50
52675;DHT22;38569;52.722;6.440;2023-03-13T15:22:44;16.70;83.50
52675;DHT22;38569;52.722;6.440;2023-03-13T15:25:22;16.50;82.70
52675;DHT22;38569;52.722;6.440;2023-03-13T15:27:48;16.50;83.30
52675;DHT22;38569;52.722;6.440;2023-03-13T15:30:19;16.40;84.70
52675;DHT22;38569;52.722;6.440;2023-03-13T15:32:45;16.40;86.70
52675;DHT22;38569;52.722;6.440;2023-03-13T15:37:47;16.40;88.10
52675;DHT22;38569;52.722;6.440;2023-03-13T15:40:15;16.40;88.70
52675;DHT22;38569;52.722;6.440;2023-03-13T15:42:41;16.50;88.90
52675;DHT22;38569;52.722;6.440;2023-03-13T15:45:07;16.40;88.80
52675;DHT22;38569;52.722;6.440;2023-03-13T15:47:33;16.30;88.50
52675;DHT22;38569;52.722;6.440;2023-03-13T15:49:59;16.20;89.10
52675;DHT22;38569;52.722;6.440;2023-03-13T15:52:24;16.20;89.70
52675;DHT22;38569;52.722;6.440;2023-03-13T15:54:50;16.10;90.10
52675;DHT22;38569;52.722;6.440;2023-03-13T15:57:24;15.90;90.20
52675;DHT22;38569;52.722;6.440;2023-03-13T15:59:51;15.80;90.10
52675;DHT22;38569;52.722;6.440;2023-03-13T16:02:22;15.70;90.40
52675;DHT22;38569;52.722;6.440;2023-03-13T16:04:49;15.50;90.70
52675;DHT22;38569;52.722;6.440;2023-03-13T16:07:16;15.40;91.00
52675;DHT22;38569;52.722;6.440;2023-03-13T16:09:43;15.30;91.30
52675;DHT22;38569;52.722;6.440;2023-03-13T16:12:09;15.20;91.70
52675;DHT22;38569;52.722;6.440;2023-03-13T16:14:36;15.10;91.90
52675;DHT22;38569;52.722;6.440;2023-03-13T16:17:03;15.00;92.10
52675;DHT22;38569;52.722;6.440;2023-03-13T16:19:35;14.90;92.30
52675;DHT22;38569;52.722;6.440;2023-03-13T16:22:01;14.90;93.00
52675;DHT22;38569;52.722;6.440;2023-03-13T16:24:26;14.80;93.60
52675;DHT22;38569;52.722;6.440;2023-03-13T16:26:53;14.70;94.20
52675;DHT22;38569;52.722;6.440;2023-03-13T16:29:19;14.70;94.80
52675;DHT22;38569;52.722;6.440;2023-03-13T16:31:44;14.60;95.60
52675;DHT22;38569;52.722;6.440;2023-03-13T16:34:10;14.50;95.90
52675;DHT22;38569;52.722;6.440;2023-03-13T16:36:36;14.50;96.40
52675;DHT22;38569;52.722;6.440;2023-03-13T16:39:07;14.40;96.90
52675;DHT22;38569;52.722;6.440;2023-03-13T16:41:36;14.40;97.60
52675;DHT22;38569;52.722;6.440;2023-03-13T16:44:02;14.30;98.30
52675;DHT22;38569;52.722;6.440;2023-03-13T16:46:34;14.20;98.70
52675;DHT22;38569;52.722;6.440;2023-03-13T16:49:01;14.10;99.30
52675;DHT22;38569;52.722;6.440;2023-03-13T16:51:27;14.10;99.50
52675;DHT22;38569;52.722;6.440;2023-03-13T16:53:54;14.00;99.80
52675;DHT22;38569;52.722;6.440;2023-03-13T16:56:38;14.00;99.90
52675;DHT22;38569;52.722;6.440;2023-03-13T16:59:06;13.90;99.90
52675;DHT22;38569;52.722;6.440;2023-03-13T17:01:32;13.80;99.80
52675;DHT22;38569;52.722;6.440;2023-03-13T17:03:58;13.80;99.90
52675;DHT22;38569;52.722;6.440;2023-03-13T17:06:27;13.70;99.90
52675;DHT22;38569;52.722;6.440;2023-03-13T17:08:54;13.70;99.70
52675;DHT22;38569;52.722;6.440;2023-03-13T17:11:21;13.60;99.70
52675;DHT22;38569;52.722;6.440;2023-03-13T17:13:49;13.60;99.60
52675;DHT22;38569;52.722;6.440;2023-03-13T17:16:24;13.60;99.40
52675;DHT22;38569;52.722;6.440;2023-03-13T17:18:52;13.50;99.50